Time;durP1;ratioP1;P1;durP2;ratioP2;P2;SDS_P1;SDS_P2;PMS_P1;PMS_P2;Temp;Humidity;BMP_temperature;BMP_pressure;BME280_temperature;BME280_humidity;BME280_pressure;Samples;Min_cycle;Max_cycle;Signal;HPM_P1;HPM_P2
2024/02/04 00:01:40;;;;;;;2.90;1.88;;;;;;;16.60;55.48;102206.31;4954912;28;20027;-68
2024/02/04 00:04:05;;;;;;;3.47;1.48;;;;;;;16.61;56.58;102208.00;4955943;28;20047;-67
2024/02/04 00:06:31;;;;;;;3.25;1.90;;;;;;;16.64;56.51;102212.28;4935426;29;20148;-67
2024/02/04 00:08:56;;;;;;;3.00;1.70;;;;;;;16.61;56.51;102209.88;4951554;28;20055;-67
2024/02/04 00:11:22;;;;;;;1.98;1.33;;;;;;;16.62;56.33;102214.28;4940991;28;20038;-66
2024/02/04 00:13:48;;;;;;;1.98;1.50;;;;;;;16.63;56.11;102202.47;4988626;28;20035;-65
2024/02/04 00:16:13;;;;;;;1.73;1.63;;;;;;;16.62;56.42;102203.47;4972388;28;20034;-66
2024/02/04 00:18:38;;;;;;;2.60;1.90;;;;;;;16.61;56.01;102202.59;4973114;28;20125;-65
2024/02/04 00:21:04;;;;;;;3.05;1.42;;;;;;;16.60;56.52;102214.44;4972699;28;20058;-65
2024/02/04 00:23:30;;;;;;;2.35;1.77;;;;;;;16.58;56.67;102213.69;4972780;28;20035;-65
2024/02/04 00:25:55;;;;;;;2.88;1.88;;;;;;;16.57;56.22;102203.88;4974069;28;20066;-64
2024/02/04 00:28:21;;;;;;;2.42;1.70;;;;;;;16.62;56.45;102209.72;4974450;28;20042;-66
2024/02/04 00:30:46;;;;;;;3.25;2.50;;;;;;;16.62;56.57;102209.72;4981072;28;20057;-65
2024/02/04 00:33:12;;;;;;;2.85;2.22;;;;;;;16.60;55.81;102206.31;4971441;28;20122;-65
2024/02/04 00:35:37;;;;;;;2.58;1.75;;;;;;;16.60;56.01;102206.31;4973060;28;20041;-66
2024/02/04 00:38:03;;;;;;;3.40;2.10;;;;;;;16.63;56.93;102216.88;4974543;28;20069;-64
2024/02/04 00:40:29;;;;;;;1.73;1.50;;;;;;;16.65;56.08;102220.28;4968400;28;20069;-64
2024/02/04 00:42:55;;;;;;;2.33;1.80;;;;;;;16.65;56.46;102214.88;4974316;28;20062;-64
2024/02/04 00:45:20;;;;;;;2.33;1.83;;;;;;;16.68;56.46;102213.75;4977600;28;20113;-65
2024/02/04 00:47:45;;;;;;;4.15;1.83;;;;;;;16.66;57.11;102211.19;4976484;28;20049;-65
2024/02/04 00:50:11;;;;;;;3.40;1.98;;;;;;;16.65;56.16;102209.47;4976805;28;20089;-67
2024/02/04 00:52:36;;;;;;;2.85;2.15;;;;;;;16.68;56.24;102206.50;4977348;28;20030;-67
2024/02/04 00:55:02;;;;;;;3.03;2.08;;;;;;;16.66;56.37;102207.63;4977506;28;20046;-67
2024/02/04 00:57:27;;;;;;;3.15;2.25;;;;;;;16.64;55.88;102207.75;4977952;28;20085;-67
2024/02/04 00:59:53;;;;;;;3.75;2.00;;;;;;;16.63;56.75;102200.63;4977626;28;20497;-66
2024/02/04 01:02:18;;;;;;;2.13;1.95;;;;;;;16.62;56.99;102201.63;4978945;28;20505;-66
2024/02/04 01:04:44;;;;;;;3.42;2.25;;;;;;;16.63;55.55;102189.81;4979175;28;20042;-65
2024/02/04 01:07:09;;;;;;;2.05;1.70;;;;;;;16.62;56.33;102193.50;4979569;28;20066;-65
2024/02/04 01:09:35;;;;;;;2.65;1.67;;;;;;;16.61;56.74;102199.91;4979186;28;20049;-64
2024/02/04 01:12:00;;;;;;;4.15;2.25;;;;;;;16.63;56.36;102206.06;4960483;28;20038;-65
2024/02/04 01:14:26;;;;;;;2.42;1.90;;;;;;;16.63;57.02;102206.06;4976576;28;20041;-64
2024/02/04 01:16:51;;;;;;;2.35;1.52;;;;;;;16.64;56.43;102207.75;4976552;28;20031;-65
2024/02/04 01:19:17;;;;;;;3.08;2.05;;;;;;;16.67;56.79;102212.88;4976606;28;20035;-64
2024/02/04 01:21:44;;;;;;;2.45;1.77;;;;;;;16.72;57.19;102216.03;4976257;28;20038;-64
2024/02/04 01:24:09;;;;;;;4.45;2.38;;;;;;;16.73;56.65;102219.59;4976376;28;20039;-64
2024/02/04 01:26:35;;;;;;;1.85;1.65;;;;;;;16.73;57.07;102216.91;4976340;28;20118;-64
2024/02/04 01:29:01;;;;;;;4.18;1.92;;;;;;;16.73;55.69;102225.03;4992525;28;20033;-65
2024/02/04 01:31:27;;;;;;;5.53;1.42;;;;;;;16.76;56.17;102216.63;4976275;28;20492;-64
2024/02/04 01:33:52;;;;;;;1.77;1.45;;;;;;;16.77;56.00;102211.09;4977951;28;20062;-65
2024/02/04 01:36:18;;;;;;;1.95;1.50;;;;;;;16.76;56.97;102206.69;4977290;28;20510;-65
2024/02/04 01:38:43;;;;;;;2.10;1.77;;;;;;;16.84;57.04;102208.69;4975978;28;20049;-64
2024/02/04 01:41:08;;;;;;;2.38;1.60;;;;;;;16.83;56.73;102199.72;4975544;28;20039;-65
2024/02/04 01:43:34;;;;;;;2.45;1.80;;;;;;;16.87;56.11;102203.00;4976605;28;20177;-64
2024/02/04 01:45:59;;;;;;;2.08;1.38;;;;;;;16.86;55.72;102196.72;4979274;28;20034;-64
2024/02/04 01:48:25;;;;;;;1.83;1.27;;;;;;;16.85;56.75;102195.03;4977701;28;20035;-64
2024/02/04 01:50:53;;;;;;;1.67;1.58;;;;;;;16.84;55.94;102198.72;4975784;28;20501;-65
2024/02/04 01:53:22;;;;;;;1.70;1.60;;;;;;;16.84;57.00;102187.03;4974802;28;20035;-64
2024/02/04 01:55:48;;;;;;;1.50;1.38;;;;;;;16.84;57.07;102198.72;4991450;28;20042;-64
2024/02/04 01:58:15;;;;;;;2.60;1.48;;;;;;;16.87;56.64;102197.59;4975577;28;20042;-64
2024/02/04 02:00:40;;;;;;;2.20;1.50;;;;;;;16.87;56.48;102193.03;4976627;28;20553;-64
2024/02/04 02:03:07;;;;;;;1.42;1.33;;;;;;;16.89;56.84;102191.06;4991578;28;20043;-65
2024/02/04 02:05:32;;;;;;;3.80;2.15;;;;;;;16.89;55.73;102185.63;4975738;28;20039;-64
2024/02/04 02:07:58;;;;;;;1.25;1.15;;;;;;;16.89;57.17;102195.59;4975392;28;20394;-64
2024/02/04 02:10:24;;;;;;;1.92;1.55;;;;;;;16.89;56.64;102199.16;4975570;28;20038;-64
2024/02/04 02:13:18;;;;;;;2.03;1.42;;;;;;;16.94;56.88;102203.34;4975091;28;20122;-64
2024/02/04 02:15:52;;;;;;;2.55;1.25;;;;;;;16.94;56.13;102206.03;4975141;28;20046;-64
2024/02/04 02:18:31;;;;;;;1.77;1.20;;;;;;;16.96;56.12;102209.47;4991437;28;20115;-64
2024/02/04 02:21:08;;;;;;;1.75;1.50;;;;;;;17.00;56.64;102210.91;4991540;28;20039;-64
2024/02/04 02:23:43;;;;;;;3.10;1.65;;;;;;;16.92;56.20;102198.03;4975469;28;20113;-65
2024/02/04 02:26:09;;;;;;;1.45;0.90;;;;;;;16.97;56.22;102203.06;4973823;28;20043;-64
2024/02/04 02:28:35;;;;;;;1.85;1.10;;;;;;;16.98;56.39;102218.28;4973481;28;20039;-65
2024/02/04 02:31:00;;;;;;;1.63;1.17;;;;;;;16.94;56.18;102203.34;4974857;28;20022;-65
2024/02/04 02:33:26;;;;;;;1.55;1.42;;;;;;;16.97;55.80;102211.19;4976192;28;20026;-64
2024/02/04 02:35:53;;;;;;;1.02;1.00;;;;;;;17.01;56.68;102210.75;4990733;28;20030;-65
2024/02/04 02:38:28;;;;;;;1.98;0.88;;;;;;;17.04;56.00;102206.91;4990790;28;20023;-64
2024/02/04 02:41:03;;;;;;;1.25;1.08;;;;;;;17.03;56.65;102197.09;4974602;28;20473;-64
2024/02/04 02:43:30;;;;;;;1.05;0.70;;;;;;;17.05;56.96;102195.09;4974932;28;20034;-64
2024/02/04 02:45:55;;;;;;;2.03;1.20;;;;;;;17.07;56.25;102190.41;4974811;28;20027;-64
2024/02/04 02:48:21;;;;;;;1.55;1.17;;;;;;;17.07;56.78;102198.53;4991635;28;20030;-64
2024/02/04 02:50:47;;;;;;;1.55;1.08;;;;;;;17.08;56.71;102184.88;4974571;28;20026;-65
2024/02/04 02:53:13;;;;;;;1.23;0.90;;;;;;;17.13;56.54;102192.56;4975582;28;20054;-64
2024/02/04 02:55:40;;;;;;;0.93;0.90;;;;;;;17.14;56.27;102189.69;4975838;28;20031;-64
2024/02/04 02:58:06;;;;;;;1.17;1.08;;;;;;;17.13;55.70;102188.00;4975953;28;20030;-64
2024/02/04 03:00:31;;;;;;;1.10;1.00;;;;;;;17.16;56.10;102195.88;4974630;28;20494;-64
2024/02/04 03:02:56;;;;;;;2.15;0.90;;;;;;;17.18;56.21;102190.28;4974283;28;20030;-64
2024/02/04 03:05:22;;;;;;;2.83;0.80;;;;;;;17.19;55.80;102192.00;4973263;28;20609;-65
2024/02/04 03:07:47;;;;;;;1.95;0.55;;;;;;;17.20;56.18;102182.88;4974361;28;20046;-64
2024/02/04 03:10:14;;;;;;;3.15;0.90;;;;;;;17.20;55.76;102175.63;4975382;28;20045;-64
2024/02/04 03:12:39;;;;;;;1.02;0.88;;;;;;;17.22;55.91;102186.31;4975440;28;20041;-64
2024/02/04 03:15:06;;;;;;;0.65;0.65;;;;;;;17.22;56.00;102192.59;4974094;28;20035;-64
2024/02/04 03:17:32;;;;;;;1.75;0.98;;;;;;;17.24;55.75;102189.75;4974009;28;20110;-65
2024/02/04 03:19:57;;;;;;;1.00;0.70;;;;;;;17.25;55.80;102188.75;4973940;28;20118;-64
2024/02/04 03:22:23;;;;;;;1.45;0.90;;;;;;;17.25;56.07;102186.06;4973997;28;20037;-64
2024/02/04 03:24:48;;;;;;;2.63;0.70;;;;;;;17.23;56.55;102185.31;4973941;28;20517;-64
2024/02/04 03:27:14;;;;;;;1.15;0.98;;;;;;;17.22;55.67;102192.59;4973737;28;20051;-64
2024/02/04 03:29:39;;;;;;;1.45;0.95;;;;;;;17.29;55.85;102198.31;4973876;28;20466;-64
2024/02/04 03:32:05;;;;;;;0.93;0.90;;;;;;;17.29;55.56;102204.59;4989835;28;20065;-64
2024/02/04 03:34:30;;;;;;;2.65;1.30;;;;;;;17.29;56.06;102198.31;4973424;28;20022;-65
2024/02/04 03:36:55;;;;;;;2.97;1.23;;;;;;;17.29;55.90;102193.75;4974719;28;20042;-64
2024/02/04 03:39:21;;;;;;;4.00;1.27;;;;;;;17.29;55.93;102179.34;4974990;28;20517;-64
2024/02/04 03:41:47;;;;;;;3.45;1.10;;;;;;;17.30;55.56;102167.53;4989918;28;20023;-64
2024/02/04 03:44:12;;;;;;;2.38;1.75;;;;;;;17.29;55.78;102165.81;4974764;28;20062;-64
2024/02/04 03:46:39;;;;;;;2.15;1.70;;;;;;;17.30;55.45;102191.91;4973535;28;20042;-64
2024/02/04 03:49:06;;;;;;;3.45;1.75;;;;;;;17.30;55.83;102189.19;4972512;28;20027;-65
2024/02/04 03:51:31;;;;;;;3.17;1.77;;;;;;;17.33;55.60;102194.34;4989518;28;20039;-64
2024/02/04 03:53:57;;;;;;;3.17;2.20;;;;;;;17.34;55.87;102190.59;4973289;28;20050;-64
2024/02/04 03:56:22;;;;;;;4.45;1.98;;;;;;;17.35;55.54;102184.22;4989591;28;20046;-64
2024/02/04 03:58:47;;;;;;;4.50;2.78;;;;;;;17.35;55.51;102167.94;4967105;28;20031;-64
2024/02/04 04:01:13;;;;;;;4.80;2.58;;;;;;;17.31;55.60;102163.78;4969942;28;20091;-63
2024/02/04 04:03:44;;;;;;;3.45;1.98;;;;;;;17.32;55.81;102169.09;4953844;29;20098;-64
2024/02/04 04:06:10;;;;;;;4.80;2.38;;;;;;;17.34;55.97;102179.78;4970107;28;20045;-64
2024/02/04 04:08:36;;;;;;;6.80;3.15;;;;;;;17.33;55.44;102168.09;4953799;28;20031;-64
2024/02/04 04:11:01;;;;;;;3.65;2.15;;;;;;;17.31;56.55;102161.94;4969966;28;20123;-64
2024/02/04 04:13:27;;;;;;;5.88;3.03;;;;;;;17.33;55.47;102167.25;4953668;29;20039;-65
2024/02/04 04:15:54;;;;;;;8.95;2.75;;;;;;;17.34;56.35;102179.78;4956899;28;20023;-64
2024/02/04 04:18:19;;;;;;;3.60;2.55;;;;;;;17.39;55.83;102189.19;4957801;29;20035;-64
2024/02/04 04:20:45;;;;;;;3.42;2.38;;;;;;;17.41;55.36;102180.94;4957542;29;20118;-64
2024/02/04 04:23:12;;;;;;;4.20;2.90;;;;;;;17.42;55.64;102177.22;4957750;29;20085;-64
2024/02/04 04:25:37;;;;;;;7.47;2.45;;;;;;;17.42;55.52;102177.22;4958914;28;20119;-64
2024/02/04 04:28:03;;;;;;;3.65;2.50;;;;;;;17.40;55.80;102190.06;4957683;29;20110;-64
2024/02/04 04:30:29;;;;;;;4.43;2.78;;;;;;;17.37;56.40;102183.06;4967385;28;20402;-64
2024/02/04 04:32:56;;;;;;;4.60;3.03;;;;;;;17.36;55.59;102180.50;4978443;28;20034;-64
2024/02/04 04:35:21;;;;;;;4.15;2.33;;;;;;;17.40;56.16;102180.06;4977800;28;20502;-64
2024/02/04 04:37:46;;;;;;;2.53;1.98;;;;;;;17.40;56.01;102181.94;4977992;28;20050;-66
2024/02/04 04:40:12;;;;;;;6.55;2.58;;;;;;;17.42;55.72;102191.63;4976896;28;20394;-64
2024/02/04 04:42:37;;;;;;;7.82;2.55;;;;;;;17.41;55.73;102206.19;4993076;28;20027;-64
2024/02/04 04:45:03;;;;;;;6.65;2.22;;;;;;;17.40;55.86;102212.59;4977122;28;20435;-65
2024/02/04 04:47:29;;;;;;;4.28;3.60;;;;;;;17.41;55.84;102213.44;4978334;28;20105;-64
2024/02/04 04:49:54;;;;;;;8.48;3.35;;;;;;;17.39;55.61;102201.91;4993975;28;20502;-64
2024/02/04 04:52:20;;;;;;;3.15;2.10;;;;;;;17.37;56.15;102185.78;4994450;28;20062;-65
2024/02/04 04:54:45;;;;;;;6.75;2.67;;;;;;;17.40;55.85;102185.50;4980315;28;20058;-64
2024/02/04 04:57:11;;;;;;;10.05;2.78;;;;;;;17.37;56.07;102176.78;4981244;28;20042;-65
2024/02/04 04:59:37;;;;;;;5.63;2.60;;;;;;;17.40;56.23;102162.97;4979730;28;20043;-64
2024/02/04 05:02:04;;;;;;;3.83;2.60;;;;;;;17.40;55.92;102160.25;4978711;28;20447;-64
2024/02/04 05:04:29;;;;;;;4.13;2.60;;;;;;;17.40;55.28;102158.41;4979301;28;20043;-65
2024/02/04 05:06:55;;;;;;;6.68;2.55;;;;;;;17.40;55.33;102154.84;4977069;28;20441;-64
2024/02/04 05:09:20;;;;;;;3.85;2.97;;;;;;;17.41;55.19;102145.72;4977606;28;20031;-64
2024/02/04 05:11:45;;;;;;;5.72;2.63;;;;;;;17.44;55.63;102142.72;4976477;28;20609;-64
2024/02/04 05:14:11;;;;;;;12.10;3.38;;;;;;;17.47;55.26;102134.31;4977875;28;20510;-65
2024/02/04 05:16:36;;;;;;;4.90;2.58;;;;;;;17.48;56.14;102133.31;4976186;28;20084;-64
2024/02/04 05:19:02;;;;;;;4.38;3.00;;;;;;;17.48;54.99;102136.88;4977128;28;20035;-65
2024/02/04 05:21:28;;;;;;;4.63;3.35;;;;;;;17.50;54.99;102142.19;4976118;28;20065;-64
2024/02/04 05:23:53;;;;;;;7.18;4.68;;;;;;;17.49;55.61;102140.44;4976049;28;20062;-64
2024/02/04 05:26:18;;;;;;;6.80;3.30;;;;;;;17.51;55.13;102149.28;4977111;28;20524;-65
2024/02/04 05:28:44;;;;;;;4.75;2.97;;;;;;;17.50;55.69;102147.59;4977064;28;20406;-64
2024/02/04 05:31:10;;;;;;;7.25;3.65;;;;;;;17.50;55.64;102144.88;4977733;28;20031;-64
2024/02/04 05:33:35;;;;;;;5.22;3.28;;;;;;;17.49;55.75;102135.03;4975925;28;20054;-64
2024/02/04 05:36:00;;;;;;;7.50;3.35;;;;;;;17.50;55.54;102139.47;4976219;28;20031;-64
2024/02/04 05:38:26;;;;;;;5.03;2.83;;;;;;;17.51;55.49;102138.44;4977197;28;20043;-64
2024/02/04 05:40:51;;;;;;;5.63;2.78;;;;;;;17.48;55.65;102125.19;4991877;28;20446;-64
2024/02/04 05:43:17;;;;;;;8.27;2.92;;;;;;;17.51;55.65;102127.59;4975809;28;20432;-65
2024/02/04 05:45:42;;;;;;;6.55;2.70;;;;;;;17.48;55.52;102126.03;4975724;28;20094;-65
2024/02/04 05:48:10;;;;;;;5.30;2.72;;;;;;;17.48;55.62;102133.31;4976778;28;20035;-64
2024/02/04 05:50:36;;;;;;;2.13;1.90;;;;;;;17.42;55.30;102123.03;4974260;28;20047;-65
2024/02/04 05:53:02;;;;;;;6.75;2.20;;;;;;;17.39;55.29;102126.88;4975578;28;20058;-65
2024/02/04 05:55:29;;;;;;;4.40;2.28;;;;;;;17.34;55.96;102131.00;4976892;28;20070;-64
2024/02/04 05:57:54;;;;;;;4.38;2.63;;;;;;;17.27;55.55;102140.72;4975440;28;20114;-65
2024/02/04 06:00:19;;;;;;;3.53;2.60;;;;;;;17.21;56.04;102133.16;4975662;28;20494;-66
2024/02/04 06:02:45;;;;;;;4.97;2.03;;;;;;;17.18;55.79;102139.69;4976246;28;20042;-67
2024/02/04 06:05:11;;;;;;;2.08;1.63;;;;;;;17.17;55.48;102139.84;4975668;28;20122;-68
2024/02/04 06:07:37;;;;;;;3.60;2.70;;;;;;;17.09;56.73;102139.66;4975748;28;20030;-68
2024/02/04 06:10:05;;;;;;;5.03;1.67;;;;;;;17.06;55.61;102134.53;4992303;28;20085;-68
2024/02/04 06:12:30;;;;;;;3.22;1.80;;;;;;;17.00;57.10;102132.41;4975985;28;20031;-68
2024/02/04 06:14:56;;;;;;;2.38;1.75;;;;;;;16.97;56.06;102138.09;4975649;28;20042;-67
2024/02/04 06:17:21;;;;;;;4.15;1.92;;;;;;;16.94;56.39;102135.66;4976886;28;20027;-67
2024/02/04 06:19:46;;;;;;;2.03;1.63;;;;;;;16.93;56.30;102125.81;4977049;28;20031;-66
2024/02/04 06:22:12;;;;;;;2.63;1.85;;;;;;;16.92;56.88;102119.53;4959198;28;20391;-66
2024/02/04 06:24:38;;;;;;;2.28;1.55;;;;;;;16.93;56.36;102128.53;4991559;28;20027;-65
2024/02/04 06:27:04;;;;;;;4.20;2.05;;;;;;;16.96;56.62;102139.06;4976845;28;20105;-66
2024/02/04 06:29:30;;;;;;;2.67;1.67;;;;;;;16.98;57.05;102128.97;4975304;28;20055;-64
2024/02/04 06:31:55;;;;;;;5.07;2.15;;;;;;;17.03;56.86;102129.41;4976274;28;20117;-65
2024/02/04 06:34:21;;;;;;;3.22;1.80;;;;;;;17.06;56.02;102123.69;4976310;28;20045;-64
2024/02/04 06:36:46;;;;;;;3.25;1.60;;;;;;;17.06;56.29;102116.44;4975005;28;20043;-65
2024/02/04 06:39:11;;;;;;;2.53;1.40;;;;;;;17.05;56.43;102114.75;4974583;28;20035;-65
2024/02/04 06:41:37;;;;;;;3.03;1.65;;;;;;;17.06;55.75;102112.88;4974765;28;20035;-64
2024/02/04 06:44:05;;;;;;;2.40;1.38;;;;;;;17.08;56.57;102124.44;4958658;28;20034;-65
2024/02/04 06:46:31;;;;;;;1.20;1.10;;;;;;;17.09;57.24;102126.13;4974900;28;20109;-64
2024/02/04 06:48:56;;;;;;;3.90;1.38;;;;;;;17.13;56.24;102116.75;4976134;28;20525;-64
2024/02/04 06:51:22;;;;;;;1.40;1.20;;;;;;;17.15;56.50;102118.31;4975874;28;20494;-64
2024/02/04 06:53:47;;;;;;;1.55;0.82;;;;;;;17.16;55.98;102105.63;4976155;28;20035;-64
2024/02/04 06:56:13;;;;;;;0.70;0.60;;;;;;;17.17;55.99;102107.38;4974642;28;20494;-64
2024/02/04 06:58:41;;;;;;;0.70;0.55;;;;;;;17.14;56.02;102108.47;4974486;28;20541;-64
2024/02/04 07:01:06;;;;;;;0.60;0.60;;;;;;;17.15;56.00;102109.34;4975752;28;20129;-64
2024/02/04 07:03:32;;;;;;;0.55;0.55;;;;;;;17.13;56.41;102104.06;4974228;28;20138;-64
2024/02/04 07:05:58;;;;;;;1.35;0.77;;;;;;;17.18;56.28;102109.06;4975742;28;20027;-65
2024/02/04 07:08:24;;;;;;;0.82;0.57;;;;;;;17.18;56.16;102111.75;4974595;28;20081;-64
2024/02/04 07:10:49;;;;;;;0.63;0.50;;;;;;;17.14;56.24;102124.72;4975436;28;20027;-64
2024/02/04 07:13:14;;;;;;;0.60;0.60;;;;;;;17.18;56.58;102117.19;4974239;28;20034;-64
2024/02/04 07:15:40;;;;;;;3.05;0.80;;;;;;;17.18;55.80;102103.63;4974379;28;20114;-64
2024/02/04 07:18:05;;;;;;;1.30;1.00;;;;;;;17.18;55.42;102103.63;4975379;28;20054;-64
2024/02/04 07:20:30;;;;;;;1.05;0.77;;;;;;;17.18;56.56;102109.06;4974007;28;20139;-64
2024/02/04 07:22:56;;;;;;;1.73;1.40;;;;;;;17.15;56.32;102115.59;4974241;28;20065;-64
2024/02/04 07:25:22;;;;;;;1.60;1.00;;;;;;;17.13;56.08;102116.75;4989836;28;20113;-64
2024/02/04 07:27:48;;;;;;;1.63;1.15;;;;;;;17.13;56.75;102122.16;4974215;28;20062;-64
2024/02/04 07:30:13;;;;;;;1.88;1.10;;;;;;;17.12;55.95;102120.44;4975286;28;20453;-64
2024/02/04 07:32:39;;;;;;;7.28;2.80;;;;;;;17.12;55.82;102129.41;4957815;28;20411;-65
2024/02/04 07:35:04;;;;;;;2.85;1.60;;;;;;;17.12;56.49;102132.13;4974211;28;20062;-66
2024/02/04 07:37:30;;;;;;;1.55;1.40;;;;;;;17.11;56.44;102124.16;4974166;28;20498;-66
2024/02/04 07:39:55;;;;;;;3.70;1.88;;;;;;;17.12;56.29;102125.84;4974119;28;20541;-65
2024/02/04 07:42:21;;;;;;;3.70;1.38;;;;;;;17.08;55.98;102121.72;4973910;28;20050;-66
2024/02/04 07:44:46;;;;;;;5.05;1.58;;;;;;;17.13;56.26;102127.56;4957989;28;20038;-67
2024/02/04 07:47:12;;;;;;;5.00;1.45;;;;;;;17.09;56.33;102136.97;4974183;28;20031;-68
2024/02/04 07:49:37;;;;;;;6.82;2.03;;;;;;;17.07;55.84;102138.97;4973802;28;20130;-68
2024/02/04 07:52:03;;;;;;;3.00;1.73;;;;;;;17.08;56.58;102129.84;4974145;28;20035;-68
2024/02/04 07:54:28;;;;;;;4.00;1.25;;;;;;;17.09;56.84;102136.97;4990022;28;20043;-68
2024/02/04 07:56:54;;;;;;;4.72;1.73;;;;;;;17.04;56.68;102133.81;4974383;28;20114;-67
2024/02/04 07:59:19;;;;;;;4.53;2.05;;;;;;;17.03;56.87;102138.38;4957755;28;20042;-66
2024/02/04 08:01:45;;;;;;;5.38;1.70;;;;;;;17.03;55.64;102132.13;4974025;28;20031;-65
2024/02/04 08:04:10;;;;;;;1.98;1.30;;;;;;;17.06;56.99;102134.53;4975460;28;20102;-65
2024/02/04 08:06:37;;;;;;;4.15;1.45;;;;;;;17.08;56.72;102135.28;4973965;28;20061;-65
2024/02/04 08:09:03;;;;;;;2.50;1.60;;;;;;;17.12;55.83;102126.72;4973685;28;20046;-65
2024/02/04 08:11:30;;;;;;;2.25;1.55;;;;;;;17.16;56.11;102127.31;4974500;28;20056;-64
2024/02/04 08:13:55;;;;;;;2.88;1.50;;;;;;;17.19;56.41;102132.44;4973479;28;20050;-65
2024/02/04 08:16:21;;;;;;;2.83;1.45;;;;;;;17.19;56.38;102116.19;4973442;28;20039;-64
2024/02/04 08:18:46;;;;;;;1.70;1.17;;;;;;;17.24;56.56;102119.31;4973613;28;20049;-64
2024/02/04 08:21:12;;;;;;;1.67;1.33;;;;;;;17.28;56.83;102123.47;4973920;28;20027;-64
2024/02/04 08:23:39;;;;;;;2.00;1.35;;;;;;;17.31;56.63;102120.47;4975288;28;20490;-64
2024/02/04 08:26:04;;;;;;;4.32;1.40;;;;;;;17.30;56.04;102129.59;4976261;28;20039;-64
2024/02/04 08:28:30;;;;;;;4.55;1.20;;;;;;;17.29;56.05;102128.75;4976298;28;20085;-65
2024/02/04 08:30:55;;;;;;;3.88;1.65;;;;;;;17.32;55.54;102127.59;4977182;28;20026;-64
2024/02/04 08:33:21;;;;;;;4.45;1.48;;;;;;;17.32;56.31;102116.78;4975614;28;20062;-64
2024/02/04 08:35:46;;;;;;;7.15;1.60;;;;;;;17.34;55.51;102120.19;4976462;28;20035;-64
2024/02/04 08:38:11;;;;;;;2.47;1.48;;;;;;;17.39;55.82;102117.94;4973575;28;20037;-64
2024/02/04 08:40:37;;;;;;;2.88;1.73;;;;;;;17.41;55.73;102116.78;4973907;28;20031;-64
2024/02/04 08:43:02;;;;;;;2.85;1.55;;;;;;;17.43;55.98;102119.34;4973282;28;20039;-65
2024/02/04 08:45:27;;;;;;;3.00;1.80;;;;;;;17.45;55.58;102101.09;4972601;28;20023;-64
2024/02/04 08:47:53;;;;;;;3.95;1.35;;;;;;;17.46;56.21;102100.97;4972959;28;20062;-64
2024/02/04 08:50:20;;;;;;;4.50;1.80;;;;;;;17.50;56.05;102108.81;4972721;28;20106;-64
2024/02/04 08:52:45;;;;;;;5.43;1.55;;;;;;;17.51;55.59;102116.78;4988890;28;20453;-64
2024/02/04 08:55:10;;;;;;;3.28;1.73;;;;;;;17.52;55.83;102117.63;4974012;28;20126;-64
2024/02/04 08:57:36;;;;;;;2.80;1.05;;;;;;;17.55;56.24;102118.25;4972408;28;20118;-63
2024/02/04 09:00:01;;;;;;;3.40;2.00;;;;;;;17.57;55.31;102127.09;4979887;28;20046;-64
2024/02/04 09:02:27;;;;;;;5.88;1.90;;;;;;;17.60;55.36;102136.78;4975880;28;20069;-64
2024/02/04 09:04:52;;;;;;;4.47;1.85;;;;;;;17.60;56.32;102137.63;4977395;28;20042;-63
2024/02/04 09:07:18;;;;;;;3.10;1.75;;;;;;;17.64;56.04;102122.81;4976112;28;20038;-62
2024/02/04 09:09:43;;;;;;;2.50;1.60;;;;;;;17.62;55.95;102134.78;4977384;28;20453;-62
2024/02/04 09:12:09;;;;;;;2.20;1.70;;;;;;;17.64;55.34;102141.78;4956880;28;20521;-62
2024/02/04 09:14:35;;;;;;;2.45;1.58;;;;;;;17.67;55.27;102144.19;4958100;28;20108;-63
2024/02/04 09:17:04;;;;;;;3.63;2.17;;;;;;;17.66;55.59;102158.75;4956788;28;20047;-63
2024/02/04 09:19:31;;;;;;;3.47;1.83;;;;;;;17.66;56.00;102153.34;4999987;28;20027;-62
2024/02/04 09:21:56;;;;;;;4.38;1.67;;;;;;;17.70;55.77;102152.03;4985910;28;20023;-63
2024/02/04 09:24:22;;;;;;;4.13;2.22;;;;;;;17.69;55.91;102144.91;4995320;28;20037;-63
2024/02/04 09:26:47;;;;;;;3.42;1.75;;;;;;;17.70;55.87;102143.06;4982553;28;20037;-62
2024/02/04 09:29:12;;;;;;;6.72;1.75;;;;;;;17.72;55.43;102147.34;4975886;28;20102;-63
2024/02/04 09:31:38;;;;;;;5.55;2.25;;;;;;;17.74;55.28;102139.91;4977010;28;20030;-63
2024/02/04 09:34:03;;;;;;;3.00;2.10;;;;;;;17.68;55.48;102121.50;4975755;28;20023;-63
2024/02/04 09:36:29;;;;;;;3.33;2.20;;;;;;;17.78;55.27;102130.47;4991875;28;20042;-63
2024/02/04 09:38:55;;;;;;;4.60;2.53;;;;;;;17.83;55.25;102136.34;4977516;28;20423;-62
2024/02/04 09:41:22;;;;;;;4.88;2.45;;;;;;;17.83;55.75;102132.78;4977097;28;20043;-63
2024/02/04 09:43:50;;;;;;;3.63;2.05;;;;;;;17.84;55.80;102135.31;4976949;28;20030;-63
2024/02/04 09:46:16;;;;;;;4.43;2.38;;;;;;;17.87;55.10;102134.19;4976358;28;20062;-63
2024/02/04 09:48:41;;;;;;;9.43;2.15;;;;;;;17.87;55.66;102123.34;4975111;28;20129;-63
2024/02/04 09:51:07;;;;;;;3.30;2.10;;;;;;;17.89;54.85;102103.25;4970927;28;20023;-63
2024/02/04 09:53:37;;;;;;;6.93;2.67;;;;;;;17.95;54.80;102105.34;4989934;28;20019;-63
2024/02/04 09:56:03;;;;;;;4.25;2.53;;;;;;;17.97;55.63;102102.50;4975731;28;20478;-63
2024/02/04 09:58:30;;;;;;;5.75;2.03;;;;;;;18.00;55.24;102107.66;4977077;28;20432;-63
2024/02/04 10:00:57;;;;;;;7.10;3.00;;;;;;;18.03;55.39;102110.91;4971184;28;20047;-63
2024/02/04 10:03:22;;;;;;;3.33;2.55;;;;;;;18.06;55.16;102111.63;4988193;28;20039;-63
2024/02/04 10:05:47;;;;;;;11.18;2.70;;;;;;;18.06;55.29;102122.47;4975562;28;20034;-63
2024/02/04 10:08:14;;;;;;;2.83;1.80;;;;;;;17.99;54.75;102116.78;4975250;28;20050;-63
2024/02/04 10:10:39;;;;;;;3.28;1.63;;;;;;;17.98;55.32;102121.31;4975038;28;20033;-63
2024/02/04 10:13:06;;;;;;;3.53;2.00;;;;;;;17.92;55.54;102111.06;4976176;28;20031;-63
2024/02/04 10:15:32;;;;;;;2.15;1.45;;;;;;;17.92;55.10;102116.47;4970215;28;20054;-63
2024/02/04 10:17:58;;;;;;;2.65;2.17;;;;;;;17.90;55.26;102106.78;4959313;28;20038;-63
2024/02/04 10:20:23;;;;;;;3.72;2.10;;;;;;;17.91;54.96;102112.09;4975991;28;20117;-63
2024/02/04 10:22:49;;;;;;;5.65;1.42;;;;;;;17.93;54.66;102112.78;4976473;28;20058;-63
2024/02/04 10:25:16;;;;;;;3.22;1.55;;;;;;;17.96;55.19;102117.06;4976224;28;20042;-63
2024/02/04 10:27:42;;;;;;;2.67;1.65;;;;;;;17.98;54.71;102105.06;4975163;28;20109;-63
2024/02/04 10:30:07;;;;;;;4.68;1.50;;;;;;;18.08;55.36;102109.63;4975242;28;20122;-63
2024/02/04 10:32:33;;;;;;;3.13;1.52;;;;;;;18.10;55.32;102113.03;4974246;28;20061;-63
2024/02/04 10:35:00;;;;;;;2.00;1.73;;;;;;;18.11;54.82;102120.16;4976306;28;20046;-63
2024/02/04 10:37:26;;;;;;;2.33;1.73;;;;;;;18.11;54.89;102129.16;4975772;28;20035;-63
2024/02/04 10:39:51;;;;;;;6.10;1.77;;;;;;;18.14;54.81;102133.44;4972514;28;20042;-63
2024/02/04 10:42:20;;;;;;;3.05;1.60;;;;;;;18.17;55.24;102122.31;4990694;28;20042;-63
2024/02/04 10:44:46;;;;;;;5.28;2.25;;;;;;;18.17;55.07;102125.00;4974795;28;20082;-63
2024/02/04 10:47:17;;;;;;;2.88;2.25;;;;;;;18.16;55.16;102118.72;4990706;28;20100;-63
2024/02/04 10:49:46;;;;;;;2.78;1.67;;;;;;;18.16;54.86;102120.59;4974253;28;20046;-63
2024/02/04 10:52:12;;;;;;;2.20;1.70;;;;;;;18.17;54.67;102127.72;4975519;28;20041;-63
2024/02/04 10:54:39;;;;;;;6.63;1.98;;;;;;;18.12;55.03;102108.34;4974059;28;20031;-63
2024/02/04 10:57:08;;;;;;;4.20;2.13;;;;;;;18.11;54.73;102106.63;4974152;28;20571;-63
2024/02/04 10:59:35;;;;;;;3.17;2.25;;;;;;;18.11;54.80;102110.19;4975338;28;20034;-63
2024/02/04 11:02:02;;;;;;;4.30;2.13;;;;;;;18.06;54.82;102115.19;4964517;28;20085;-63
2024/02/04 11:04:29;;;;;;;3.72;1.55;;;;;;;18.08;54.81;102115.03;4974730;28;20181;-63
2024/02/04 11:06:55;;;;;;;5.05;1.83;;;;;;;18.08;54.85;102124.03;4974447;28;20035;-63
2024/02/04 11:09:21;;;;;;;2.53;1.30;;;;;;;18.14;54.74;102128.03;4973921;28;20034;-63
2024/02/04 11:11:46;;;;;;;2.15;1.25;;;;;;;18.14;54.73;102131.59;4974058;28;20375;-63
2024/02/04 11:14:15;;;;;;;5.85;1.67;;;;;;;18.09;54.88;102104.03;4974078;28;20035;-63
2024/02/04 11:17:08;;;;;;;4.63;1.60;;;;;;;18.07;55.10;102102.47;4973811;28;20180;-63
2024/02/04 11:19:36;;;;;;;2.28;1.15;;;;;;;18.03;54.89;102112.78;4975155;28;20039;-64